Time;durP1;ratioP1;P1;durP2;ratioP2;P2;SDS_P1;SDS_P2;PMS_P1;PMS_P2;Temp;Humidity;BMP_temperature;BMP_pressure;BME280_temperature;BME280_humidity;BME280_pressure;Samples;Min_cycle;Max_cycle;Signal;HPM_P1;HPM_P2
2023/06/10 00:00:12;;;;;;;18.83;9.50;;;;;;;;;;6276485;22;20146;-94
2023/06/10 00:03:23;;;;;;;19.45;10.63;;;;;;;;;;6276042;22;20214;-93
2023/06/10 00:06:28;;;;;;;38.88;16.55;;;;;;;;;;6274852;22;20229;-93
2023/06/10 00:09:40;;;;;;;53.80;22.77;;;;;;;;;;6275635;22;20169;-94
2023/06/10 00:12:46;;;;;;;31.63;15.30;;;;;;;;;;6274410;22;20196;-91
2023/06/10 00:15:51;;;;;;;38.88;17.23;;;;;;;;;;6275454;22;20190;-93
2023/06/10 00:23:16;;;;;;;29.27;13.23;;;;;;;;;;6294448;22;20134;-92
2023/06/10 00:26:23;;;;;;;23.00;12.13;;;;;;;;;;6276324;22;20165;-93
2023/06/10 00:29:30;;;;;;;21.63;10.93;;;;;;;;;;6274802;22;20165;-94
2023/06/10 00:32:36;;;;;;;32.30;12.82;;;;;;;;;;6276748;22;20169;-93
2023/06/10 00:35:41;;;;;;;31.55;14.23;;;;;;;;;;6276687;22;20185;-91
2023/06/10 00:38:47;;;;;;;24.15;11.00;;;;;;;;;;6276912;22;20238;-93
2023/06/10 00:41:53;;;;;;;69.15;27.60;;;;;;;;;;6279613;22;20154;-95
2023/06/10 00:45:00;;;;;;;28.33;11.18;;;;;;;;;;6277541;22;20170;-92
2023/06/10 00:48:06;;;;;;;35.40;13.52;;;;;;;;;;6278081;22;20218;-93
2023/06/10 00:51:11;;;;;;;31.10;12.65;;;;;;;;;;6275763;22;20189;-91
2023/06/10 00:54:18;;;;;;;20.67;10.15;;;;;;;;;;6276694;22;20231;-94
2023/06/10 00:57:49;;;;;;;18.95;10.15;;;;;;;;;;6277291;22;20221;-92
2023/06/10 01:00:57;;;;;;;19.65;10.20;;;;;;;;;;6275522;22;20170;-93
2023/06/10 01:04:06;;;;;;;22.20;9.38;;;;;;;;;;6277884;22;20173;-93
2023/06/10 01:07:14;;;;;;;22.90;11.13;;;;;;;;;;6276332;22;20166;-92
2023/06/10 01:10:22;;;;;;;16.10;9.25;;;;;;;;;;6276392;22;20207;-92
2023/06/10 01:13:29;;;;;;;14.82;8.60;;;;;;;;;;6278288;22;20255;-93
2023/06/10 01:16:40;;;;;;;12.07;7.55;;;;;;;;;;6277733;22;20239;-92
2023/06/10 01:19:55;;;;;;;11.15;6.97;;;;;;;;;;6281253;22;20170;-94
2023/06/10 01:23:04;;;;;;;12.77;7.72;;;;;;;;;;6280402;22;20166;-91
2023/06/10 01:26:12;;;;;;;12.05;7.65;;;;;;;;;;6278497;22;20153;-92
2023/06/10 01:29:20;;;;;;;12.05;7.75;;;;;;;;;;6276376;22;20514;-93
2023/06/10 01:32:28;;;;;;;15.48;7.57;;;;;;;;;;6277512;22;20170;-94
2023/06/10 01:35:35;;;;;;;12.82;8.00;;;;;;;;;;6276223;22;20621;-91
2023/06/10 01:38:44;;;;;;;14.30;7.85;;;;;;;;;;6275490;22;20178;-91
2023/06/10 01:41:51;;;;;;;12.80;8.63;;;;;;;;;;6276445;22;20168;-92
2023/06/10 01:44:57;;;;;;;20.05;9.15;;;;;;;;;;6276059;22;20166;-92
2023/06/10 01:48:02;;;;;;;15.77;8.80;;;;;;;;;;6276312;22;20150;-93
2023/06/10 01:51:08;;;;;;;22.98;9.65;;;;;;;;;;6275538;22;20304;-91
2023/06/10 01:54:17;;;;;;;17.55;9.43;;;;;;;;;;6277725;22;20166;-93
2023/06/10 01:57:26;;;;;;;11.80;7.85;;;;;;;;;;6274783;22;20249;-92
2023/06/10 02:00:32;;;;;;;16.00;7.68;;;;;;;;;;6276364;22;20169;-93
2023/06/10 02:03:37;;;;;;;14.98;7.22;;;;;;;;;;6276520;22;20165;-94
2023/06/10 02:06:43;;;;;;;14.73;7.43;;;;;;;;;;6276093;22;20169;-91
2023/06/10 02:09:50;;;;;;;14.93;8.20;;;;;;;;;;6276763;22;20177;-92
2023/06/10 02:12:56;;;;;;;11.65;7.75;;;;;;;;;;6277735;22;20149;-90
2023/06/10 02:16:01;;;;;;;15.68;7.93;;;;;;;;;;6278620;22;20183;-92
2023/06/10 02:19:18;;;;;;;13.48;8.05;;;;;;;;;;6278210;22;20158;-95
2023/06/10 02:22:25;;;;;;;15.40;7.70;;;;;;;;;;6276811;22;20217;-91
2023/06/10 02:25:33;;;;;;;16.50;8.38;;;;;;;;;;6275805;22;20181;-93
2023/06/10 02:28:39;;;;;;;34.25;8.45;;;;;;;;;;6274768;22;20182;-90
2023/06/10 02:31:44;;;;;;;17.27;8.13;;;;;;;;;;6275815;22;20161;-92
2023/06/10 02:34:50;;;;;;;13.23;7.80;;;;;;;;;;6277421;22;20149;-94
2023/06/10 02:37:56;;;;;;;11.13;7.13;;;;;;;;;;6275887;22;20217;-93
2023/06/10 02:41:03;;;;;;;13.30;6.95;;;;;;;;;;6277425;22;20149;-92
2023/06/10 02:44:08;;;;;;;12.30;7.32;;;;;;;;;;6275556;22;20185;-91
2023/06/10 02:47:13;;;;;;;12.90;7.05;;;;;;;;;;6276687;22;20157;-91
2023/06/10 02:50:19;;;;;;;10.52;6.97;;;;;;;;;;6276869;22;20169;-91
2023/06/10 02:53:44;;;;;;;13.20;7.53;;;;;;;;;;6275360;22;20166;-92
2023/06/10 03:00:26;;;;;;;14.40;7.75;;;;;;;;;;6275933;22;20166;-92
2023/06/10 03:03:33;;;;;;;15.07;8.43;;;;;;;;;;6276102;22;20165;-94
2023/06/10 03:06:46;;;;;;;14.60;8.27;;;;;;;;;;6277133;22;20223;-92
2023/06/10 03:10:01;;;;;;;13.10;7.97;;;;;;;;;;6277351;22;20166;-92
2023/06/10 03:13:06;;;;;;;12.98;7.53;;;;;;;;;;6276230;22;20234;-93
2023/06/10 03:16:13;;;;;;;11.23;7.53;;;;;;;;;;6276380;22;20166;-93
2023/06/10 03:19:23;;;;;;;12.23;8.25;;;;;;;;;;6276364;22;20189;-95
2023/06/10 03:22:30;;;;;;;15.27;8.48;;;;;;;;;;6275953;22;20226;-90
2023/06/10 03:25:44;;;;;;;16.52;7.93;;;;;;;;;;6278862;22;20165;-91
2023/06/10 03:28:53;;;;;;;21.48;7.65;;;;;;;;;;6276057;22;20181;-92
2023/06/10 03:32:01;;;;;;;12.10;6.38;;;;;;;;;;6275827;22;20218;-92
2023/06/10 03:35:08;;;;;;;38.42;7.28;;;;;;;;;;6276787;22;20165;-95
2023/06/10 03:38:14;;;;;;;14.30;7.10;;;;;;;;;;6274633;22;20197;-92
2023/06/10 03:41:21;;;;;;;16.20;10.25;;;;;;;;;;6275968;22;20165;-93
2023/06/10 03:44:27;;;;;;;22.77;8.35;;;;;;;;;;6274730;22;20162;-93
2023/06/10 03:47:36;;;;;;;12.27;6.75;;;;;;;;;;6274848;22;20185;-91
2023/06/10 03:50:44;;;;;;;12.98;7.45;;;;;;;;;;6274655;22;20180;-92
2023/06/10 03:53:50;;;;;;;12.93;6.60;;;;;;;;;;6273959;22;20220;-94
2023/06/10 03:57:01;;;;;;;16.52;7.22;;;;;;;;;;6274673;22;20176;-92
2023/06/10 04:00:11;;;;;;;30.20;7.57;;;;;;;;;;6274187;22;20612;-91
2023/06/10 04:03:22;;;;;;;13.13;7.30;;;;;;;;;;6293502;22;20220;-91
2023/06/10 04:06:43;;;;;;;12.98;6.55;;;;;;;;;;6277432;22;20169;-92
2023/06/10 04:09:48;;;;;;;12.65;7.55;;;;;;;;;;6275471;22;20621;-92
2023/06/10 04:12:55;;;;;;;12.45;6.97;;;;;;;;;;6277299;22;20230;-95
2023/06/10 04:16:02;;;;;;;11.85;7.95;;;;;;;;;;6275250;22;20145;-92
2023/06/10 04:19:09;;;;;;;19.05;8.18;;;;;;;;;;6275383;22;20165;-92
2023/06/10 04:22:14;;;;;;;15.27;7.93;;;;;;;;;;6278734;22;20169;-91
2023/06/10 04:25:20;;;;;;;14.85;8.02;;;;;;;;;;6275550;22;20170;-91
2023/06/10 04:28:28;;;;;;;14.52;7.90;;;;;;;;;;6275335;22;20154;-93
2023/06/10 04:31:35;;;;;;;12.43;7.80;;;;;;;;;;6274152;22;20590;-92
2023/06/10 04:34:43;;;;;;;10.23;6.93;;;;;;;;;;6276486;22;20168;-91
2023/06/10 04:37:48;;;;;;;12.25;7.55;;;;;;;;;;6278551;22;20193;-94
2023/06/10 04:40:55;;;;;;;11.50;7.18;;;;;;;;;;6278557;22;20162;-93
2023/06/10 04:44:02;;;;;;;13.32;7.95;;;;;;;;;;6277687;22;20153;-92
2023/06/10 04:47:08;;;;;;;12.43;8.00;;;;;;;;;;6276504;22;20162;-93
2023/06/10 04:50:16;;;;;;;11.88;6.50;;;;;;;;;;6277704;22;20161;-93
2023/06/10 04:53:24;;;;;;;7.65;5.13;;;;;;;;;;6281140;22;20158;-93
2023/06/10 04:56:30;;;;;;;8.73;5.85;;;;;;;;;;6283816;22;20169;-94
2023/06/10 04:59:38;;;;;;;7.25;5.40;;;;;;;;;;6281127;22;20161;-94
2023/06/10 05:02:42;;;;;;;11.43;7.05;;;;;;;;;;6277067;22;20181;-92
2023/06/10 05:05:49;;;;;;;10.85;6.85;;;;;;;;;;6280197;22;20214;-92
2023/06/10 05:08:54;;;;;;;9.60;5.88;;;;;;;;;;6278861;22;20174;-92
2023/06/10 05:11:59;;;;;;;11.57;6.50;;;;;;;;;;6278008;22;20254;-95
2023/06/10 05:15:05;;;;;;;9.00;6.00;;;;;;;;;;6279100;22;20150;-93
2023/06/10 05:18:37;;;;;;;10.32;6.10;;;;;;;;;;6278645;22;20189;-95
2023/06/10 05:21:44;;;;;;;7.68;5.85;;;;;;;;;;6279961;22;20235;-94
2023/06/10 05:24:50;;;;;;;11.68;6.95;;;;;;;;;;6279683;22;20218;-92
2023/06/10 05:27:56;;;;;;;8.63;5.97;;;;;;;;;;6278646;22;20177;-94
2023/06/10 05:31:01;;;;;;;14.02;7.65;;;;;;;;;;6280220;22;20202;-94
2023/06/10 05:34:06;;;;;;;16.45;8.05;;;;;;;;;;6278313;22;20496;-93
2023/06/10 05:37:23;;;;;;;14.48;8.20;;;;;;;;;;6282291;22;20193;-92
2023/06/10 15:07:31;;;;;;;1.73;1.02;;;;;;;;;;6310909;22;20193;-93
2023/06/10 15:10:38;;;;;;;3.95;2.10;;;;;;;;;;6310031;22;20168;-91
2023/06/10 15:13:43;;;;;;;1.70;1.60;;;;;;;;;;6309952;22;20157;-94
2023/06/10 15:16:49;;;;;;;1.25;1.15;;;;;;;;;;6306908;22;20543;-91
2023/06/10 15:20:03;;;;;;;2.03;1.15;;;;;;;;;;6307860;22;20227;-91
2023/06/10 15:23:10;;;;;;;2.20;1.05;;;;;;;;;;6309385;22;20148;-92
2023/06/10 15:26:16;;;;;;;0.63;0.63;;;;;;;;;;6306666;22;20196;-91
2023/06/10 15:29:23;;;;;;;0.65;0.65;;;;;;;;;;6308035;22;20153;-91
2023/06/10 15:32:29;;;;;;;5.57;1.25;;;;;;;;;;6309326;22;20161;-92
2023/06/10 15:35:38;;;;;;;0.95;0.95;;;;;;;;;;6308216;22;20180;-92
2023/06/10 15:38:46;;;;;;;1.27;1.23;;;;;;;;;;6307976;22;20184;-92
2023/06/10 15:41:51;;;;;;;1.60;0.98;;;;;;;;;;6303024;22;20284;-91
2023/06/10 15:44:57;;;;;;;6.30;1.88;;;;;;;;;;6305782;22;20169;-90
2023/06/10 15:48:02;;;;;;;0.88;0.88;;;;;;;;;;6306447;22;20228;-91
2023/06/10 15:51:07;;;;;;;1.38;1.25;;;;;;;;;;6306842;22;20212;-92
2023/06/10 15:54:19;;;;;;;1.85;1.30;;;;;;;;;;6307418;22;20172;-91
2023/06/10 15:57:45;;;;;;;1.08;1.08;;;;;;;;;;6305937;22;20181;-91
2023/06/10 16:00:50;;;;;;;0.80;0.80;;;;;;;;;;6305882;22;20169;-90
2023/06/10 16:03:55;;;;;;;0.73;0.73;;;;;;;;;;6309602;22;20185;-90
2023/06/10 16:07:04;;;;;;;1.13;1.05;;;;;;;;;;6306971;22;20192;-92
2023/06/10 16:10:11;;;;;;;1.40;1.13;;;;;;;;;;6306519;22;20169;-91
2023/06/10 16:13:16;;;;;;;0.68;0.68;;;;;;;;;;6307786;22;20284;-90
2023/06/10 16:16:22;;;;;;;4.80;1.48;;;;;;;;;;6307721;22;20190;-93
2023/06/10 16:19:29;;;;;;;1.48;1.38;;;;;;;;;;6290999;22;20219;-92
2023/06/10 16:22:37;;;;;;;0.82;0.82;;;;;;;;;;6310368;22;20655;-92
2023/06/10 16:25:45;;;;;;;3.95;1.38;;;;;;;;;;6311666;22;20209;-92
2023/06/10 16:28:51;;;;;;;2.22;1.92;;;;;;;;;;6309422;22;20169;-92
2023/06/10 16:31:57;;;;;;;2.17;1.23;;;;;;;;;;6310880;22;20211;-91
2023/06/10 16:35:03;;;;;;;3.88;1.98;;;;;;;;;;6310313;22;20165;-93
2023/06/10 16:38:15;;;;;;;1.23;1.20;;;;;;;;;;6310582;22;20181;-92
2023/06/10 16:41:25;;;;;;;0.57;0.57;;;;;;;;;;6310688;22;20166;-90
2023/06/10 16:44:34;;;;;;;1.08;1.02;;;;;;;;;;6311782;22;20153;-91
2023/06/10 16:47:40;;;;;;;1.27;1.17;;;;;;;;;;6309706;22;20164;-92
2023/06/10 16:50:49;;;;;;;1.98;1.55;;;;;;;;;;6311571;22;20234;-92
2023/06/10 16:53:55;;;;;;;2.08;1.50;;;;;;;;;;6309607;22;20146;-93
2023/06/10 16:57:33;;;;;;;1.58;0.85;;;;;;;;;;6308077;22;20153;-93
2023/06/10 17:00:44;;;;;;;1.77;1.48;;;;;;;;;;6311641;22;20195;-90
2023/06/10 17:03:50;;;;;;;0.98;0.98;;;;;;;;;;6310088;22;20189;-92
2023/06/10 17:06:56;;;;;;;1.17;1.15;;;;;;;;;;6312045;22;20191;-92
2023/06/10 17:10:03;;;;;;;1.25;1.20;;;;;;;;;;6312595;22;20169;-92
2023/06/10 17:13:12;;;;;;;4.13;1.98;;;;;;;;;;6315543;22;20157;-92
